Key West International Airport
KEYW : now visible

Airfield :











YOU CAN JOIN US ON...

 
LOGIN :

Register | Disclaimer

   EN    FR    IT 

 









Legend :    VFR   Marginal VFR   IFR   Intensive IFR   Very Intensive IFR
Visi :
Ceiling :
>= 8 km
>= 3000ft
5 to 8 km
1000 to 3000 ft
1500m to 5 km
500 to 1000 ft
800 to 1500m
200 to 500 ft
< 800m
< 200 ft
Symbols :   Thunderstorms  Fog  Heavy snow  Heavy precipitations  Wind > 20 kt







- Airport Elevation : 3 ft
- IATA code : EYW


KEYW - Key West International

CURRENT METAR :
  • 210653Z 13013KT 10SM CLR 28/24 A3000 RMK AO2 SLP159 T02780244

EXPIRED METARs :
  • 210553Z 13015KT 10SM FEW019 28/24 A3003 RMK AO2 SLP168 60004 T02780244 10300 20267 58001
  • 210453Z 12012KT 10SM FEW060 FEW085 28/23 A3004 RMK AO2 RAB10E42 SLP171 P0004 T02830228 403280267

TAF KEYW
Valid from the 21 at 06:00 until the 22 at 06:00 UTC


210520Z 2106/2206 12011KT P6SM VCSH SCT025
KZMA FIR / North America



MET'MAP, your aeronautical weather chart ! - Copyright ORBIFLY December 2007 - Disclaimer

ORBIFLY MET'MAP TEAM :

Programming & Development : Alexandra Zaïnal
Concept & Development : Baudouin d'Aumeries
Co-Development & Prog : Marc-Olivier Méhu
Technical & hardware support : Manuel Goepfert

Contact : metmap@orbifly.com




SOURCES & CREDITS :

   NOAA       Earth
Advisory